Startpagina
METAR-TAF:

METAR-TAF

Vliegvelden :

Aeropuerto Federico García Lorca Granada-Jaén

Granada, Spanje

breedte: 37-11N, lengte: 003-47W, hoogte: 567 m

Actueel weer

Dit bericht is 22 minuten geleden gemaakt, om 04:30 UTC
Weinig wind
Temperatuur 12°C
Vochtigheid 88%
Druk 1029 hPa
Zicht 10 km of meer
Geheel bewolkt op 2000 ft

METAR: LEGR 190430Z AUTO 00000KT 9999 OVC020 12/10 Q1029

Tijdstip: 05:52 (04:52 UTC)

Verwachting

Dit bericht is 2 uur en het 52 minuten geleden gemaakt, om 02:00 UTC
Verwachting geldig van 19 om 03 UTC tot 20 om 03 UTC
Wind 2 kt uit variabele richting
Zicht 10 km of meer
Verspreide wolken op 5000 ft
Kans 40% :
Tijdelijke
van 19 om 03 UTC tot 19 om 08 UTC
Gebroken wolken op 1400 ft

TAF: LEGR 190200Z 1903/2003 VRB02KT 9999 SCT050 TX20/1915Z TN04/1905Z PROB40 TEMPO 1903/1908 BKN014

Waarnemingen en weersverwachtingen van meer dan 4000 vliegvelden (METAR en TAF).

De beschikbare stations zijn de gele en rode punten op de kaart.

Ga met uw muis naar het station om de naam te zien.

Klik dan om waarnemingen en weersverwachtingen te zien.

kaart wijzigen: klik op de groene knoppen met een zwart kruis om in te zoomen, op de groene knop met een streepje om uit te zoomen of op de groene pijlen voor aangrenzende kaarten.


METAR-TAF: